Superfast Baleares — EBXD — position and weather

sailwx.info

Track history (hours):
 
Tides and Currents Weather Stations Pressure Air Temp Water Temp Dewpoint Dewpoint Depression Visibility Wind Speed Wind Dir Waves Ship Positions

Superfast Baleares

Last reported at 2016-May-25 20:19 UTC. Time now 2016-May-26 08:47 UTC.
Position N 57°47' E 011°01'.

Length 210 m; draft 7 m.

Type: Ship (hazmat cat A). MMSI: 225405000.

Date/timePositionNaut miles runAvg speedWind from/ knotsBaromVisibWave heightAir tempDewpointWater temp
2016-May-25 20:19N 57°47' E 011°01'1621.4
2016-May-25 19:34N 57°39' E 011°28'1212.1
2016-May-25 18:33N 57°41' E 011°50'1 0.5
2016-May-25 17:33N 57°41' E 011°50'0 0.0
2016-May-25 16:33N 57°41' E 011°50'0 0.0
2016-May-25 15:33N 57°41' E 011°50'0 0.0
2016-May-25 14:33N 57°41' E 011°50'0 0.0
2016-May-25 13:33N 57°41' E 011°50'0 0.0
2016-May-25 12:33N 57°41' E 011°50'0 0.0
2016-May-25 11:33N 57°41' E 011°50'0 0.0
2016-May-25 10:33N 57°41' E 011°50'0 0.0
2016-May-25 09:33N 57°41' E 011°50'0 0.0
2016-May-25 08:33N 57°41' E 011°50'0 0.0
2016-May-25 07:33N 57°41' E 011°50'0 0.0
2016-May-25 06:33N 57°41' E 011°50'0 0.2
2016-May-25 05:33N 57°41' E 011°50'1110.9
2016-May-25 04:33N 57°37' E 011°31'1111.5
2016-May-25 03:33N 57°42' E 011°12'1312.7
2016-May-25 02:33N 57°49' E 010°51'43919.8
2016-May-24 04:24N 53°34' E 000°16'2 2.5
2016-May-24 03:34N 53°33' E 000°14'1312.6
2016-May-24 02:33N 53°37' W 000°06'4 3.5
2016-May-24 01:33N 53°38' W 000°12'0 0.0
2016-May-24 00:33N 53°38' W 000°12'0 0.0
2016-May-23 23:33N 53°38' W 000°12'0 0.0
2016-May-23 22:33N 53°38' W 000°12'0 0.0
2016-May-23 21:33N 53°38' W 000°12'0 0.0
2016-May-23 20:33N 53°38' W 000°12'0 0.0
2016-May-23 19:33N 53°38' W 000°12'0 0.0
2016-May-23 18:34N 53°38' W 000°12'0 0.0
2016-May-23 17:33N 53°38' W 000°12'0 0.0
2016-May-23 16:33N 53°38' W 000°12'0 0.0
2016-May-23 15:33N 53°38' W 000°12'0 0.0
2016-May-23 14:33N 53°38' W 000°12'0 0.0
2016-May-23 13:33N 53°38' W 000°12'0 0.0
2016-May-23 12:33N 53°38' W 000°12'0 0.0
2016-May-23 11:33N 53°38' W 000°12'0 0.0
2016-May-23 10:33N 53°38' W 000°12'0 0.0
2016-May-23 09:33N 53°38' W 000°12'0 0.0
2016-May-23 08:33N 53°38' W 000°12'0 0.0
2016-May-23 07:34N 53°38' W 000°12'0 0.0
2016-May-23 06:33N 53°38' W 000°12'0 0.0
2016-May-23 05:33N 53°38' W 000°12'0 0.0
2016-May-23 04:33N 53°38' W 000°12'0 0.0
2016-May-23 03:33N 53°38' W 000°12'0 0.0
2016-May-23 02:34N 53°38' W 000°12'0 0.0
2016-May-23 01:33N 53°38' W 000°12'0 0.0
2016-May-23 00:33N 53°38' W 000°12'0 0.0
2016-May-22 23:33N 53°38' W 000°12'2 1.7
2016-May-22 22:33N 53°38' W 000°09'1111.0
2016-May-22 21:32N 53°34' E 000°08'9 8.3
2016-May-22 20:29N 53°38' E 000°21'42618.2
2016-May-21 21:07N 57°49' E 010°32'915.4
2016-May-21 20:33N 57°50' E 010°48'1615.8
2016-May-21 19:33N 57°43' E 011°15'1414.0
2016-May-21 18:33N 57°37' E 011°38'8 8.0
2016-May-21 17:34N 57°41' E 011°50'0 0.0
2016-May-21 16:34N 57°41' E 011°50'0 0.0
2016-May-21 15:34N 57°41' E 011°50'0 0.0
2016-May-21 14:34N 57°41' E 011°50'0 0.0
2016-May-21 13:34N 57°41' E 011°50'0 0.0
2016-May-21 12:34N 57°41' E 011°50'0 0.0
2016-May-21 11:34N 57°41' E 011°50'0 0.0
2016-May-21 10:34N 57°41' E 011°50'0 0.0
2016-May-21 09:34N 57°41' E 011°50'1 0.5
2016-May-21 08:34N 57°41' E 011°51'1312.5
2016-May-21 07:33N 57°38' E 011°28'1413.8
2016-May-21 06:33N 57°44' E 011°05'44618.6
2016-May-20 06:34N 53°33' E 000°12'1414.5
2016-May-20 05:34N 53°38' W 000°10'1 0.9
2016-May-20 04:34N 53°38' W 000°12'0 0.0
2016-May-20 03:33N 53°38' W 000°12'0 0.0
2016-May-20 02:33N 53°38' W 000°12'0 0.0
2016-May-20 01:33N 53°38' W 000°12'0 0.0
2016-May-20 00:34N 53°38' W 000°12'0 0.0
2016-May-19 23:33N 53°38' W 000°12'0 0.0
2016-May-19 22:33N 53°38' W 000°12'0 0.0
2016-May-19 21:33N 53°38' W 000°12'0 0.4
2016-May-19 20:33N 53°38' W 000°11'3 3.5
2016-May-19 19:33N 53°37' W 000°06'1110.7
2016-May-19 18:33N 53°33' E 000°11'44120.0
2016-May-18 20:34N 57°49' E 010°49'1615.9
2016-May-18 19:33N 57°43' E 011°17'1313.5
2016-May-18 18:34N 57°36' E 011°38'8 8.4
2016-May-18 17:33N 57°41' E 011°50'0 0.0
2016-May-18 16:33N 57°41' E 011°50'0 0.0
2016-May-18 15:33N 57°41' E 011°50'0 0.0
2016-May-18 14:33N 57°41' E 011°50'0 0.0
2016-May-18 13:33N 57°41' E 011°50'0 0.0
2016-May-18 12:33N 57°41' E 011°50'0 0.0
2016-May-18 11:33N 57°41' E 011°50'0 0.0
2016-May-18 10:33N 57°41' E 011°50'0 0.0
2016-May-18 09:33N 57°41' E 011°50'0 0.0
2016-May-18 08:33N 57°41' E 011°50'0 0.0
2016-May-18 07:33N 57°41' E 011°50'0 0.0
2016-May-18 06:33N 57°41' E 011°50'0 0.4
2016-May-18 05:33N 57°41' E 011°51'1110.9
2016-May-18 04:33N 57°37' E 011°32'44618.3
2016-May-17 04:12N 53°39' E 000°23'1015.9
2016-May-17 03:33N 53°33' E 000°10'1313.2
2016-May-17 02:33N 53°38' W 000°11'1 0.8
2016-May-17 01:34N 53°38' W 000°12'0 0.0
2016-May-17 00:33N 53°38' W 000°12'0 0.0
2016-May-16 23:34N 53°38' W 000°12'0 0.0
2016-May-16 22:33N 53°38' W 000°12'0 0.0
2016-May-16 21:34N 53°38' W 000°12'0 0.0
2016-May-16 20:33N 53°38' W 000°12'0 0.0
2016-May-16 19:34N 53°38' W 000°12'0 0.0
2016-May-16 18:34N 53°38' W 000°12'0 0.0
2016-May-16 17:33N 53°38' W 000°12'0 0.0
2016-May-16 16:33N 53°38' W 000°12'0 0.0
2016-May-16 15:33N 53°38' W 000°12'0 0.0
2016-May-16 14:33N 53°38' W 000°12'0 0.0
2016-May-16 13:33N 53°38' W 000°12'0 0.0
2016-May-16 12:34N 53°38' W 000°12'0 0.0
2016-May-16 11:34N 53°38' W 000°12'0 0.0
2016-May-16 10:33N 53°38' W 000°12'0 0.0
2016-May-16 09:33N 53°38' W 000°12'0 0.0
2016-May-16 08:33N 53°38' W 000°12'0 0.0
2016-May-16 07:33N 53°38' W 000°12'0 0.0
2016-May-16 06:34N 53°38' W 000°12'0 0.0
2016-May-16 05:33N 53°38' W 000°12'0 0.0
2016-May-16 04:33N 53°38' W 000°12'0 0.0
2016-May-16 03:33N 53°38' W 000°12'0 0.0
2016-May-16 02:34N 53°38' W 000°12'0 0.0
2016-May-16 01:33N 53°38' W 000°12'0 0.0
2016-May-16 00:33N 53°38' W 000°12'0 0.0
2016-May-15 23:33N 53°38' W 000°12'2 2.0
2016-May-15 22:33N 53°38' W 000°09'1110.9
2016-May-15 21:34N 53°33' E 000°08'  
Track history (hours):
 
Tides and Currents Weather Stations Pressure Air Temp Water Temp Dewpoint Dewpoint Depression Visibility Wind Speed Wind Dir Waves Ship Positions

Superfast Baleares

Last reported at 2016-May-25 20:19 UTC. Time now 2016-May-26 08:47 UTC.
Position N 57°47' E 011°01'.

Length 210 m; draft 7 m.

Type: Ship (hazmat cat A). MMSI: 225405000.

Date/timePositionNaut miles runAvg speedWind from/ knotsBaromVisibWave heightAir tempDewpointWater temp
2016-May-25 20:19N 57°47' E 011°01'1621.4
2016-May-25 19:34N 57°39' E 011°28'1212.1
2016-May-25 18:33N 57°41' E 011°50'1 0.5
2016-May-25 17:33N 57°41' E 011°50'0 0.0
2016-May-25 16:33N 57°41' E 011°50'0 0.0
2016-May-25 15:33N 57°41' E 011°50'0 0.0
2016-May-25 14:33N 57°41' E 011°50'0 0.0
2016-May-25 13:33N 57°41' E 011°50'0 0.0
2016-May-25 12:33N 57°41' E 011°50'0 0.0
2016-May-25 11:33N 57°41' E 011°50'0 0.0
2016-May-25 10:33N 57°41' E 011°50'0 0.0
2016-May-25 09:33N 57°41' E 011°50'0 0.0
2016-May-25 08:33N 57°41' E 011°50'0 0.0
2016-May-25 07:33N 57°41' E 011°50'0 0.0
2016-May-25 06:33N 57°41' E 011°50'0 0.2
2016-May-25 05:33N 57°41' E 011°50'1110.9
2016-May-25 04:33N 57°37' E 011°31'1111.5
2016-May-25 03:33N 57°42' E 011°12'1312.7
2016-May-25 02:33N 57°49' E 010°51'43919.8
2016-May-24 04:24N 53°34' E 000°16'2 2.5
2016-May-24 03:34N 53°33' E 000°14'1312.6
2016-May-24 02:33N 53°37' W 000°06'4 3.5
2016-May-24 01:33N 53°38' W 000°12'0 0.0
2016-May-24 00:33N 53°38' W 000°12'0 0.0
2016-May-23 23:33N 53°38' W 000°12'0 0.0
2016-May-23 22:33N 53°38' W 000°12'0 0.0
2016-May-23 21:33N 53°38' W 000°12'0 0.0
2016-May-23 20:33N 53°38' W 000°12'0 0.0
2016-May-23 19:33N 53°38' W 000°12'0 0.0
2016-May-23 18:34N 53°38' W 000°12'0 0.0
2016-May-23 17:33N 53°38' W 000°12'0 0.0
2016-May-23 16:33N 53°38' W 000°12'0 0.0
2016-May-23 15:33N 53°38' W 000°12'0 0.0
2016-May-23 14:33N 53°38' W 000°12'0 0.0
2016-May-23 13:33N 53°38' W 000°12'0 0.0
2016-May-23 12:33N 53°38' W 000°12'0 0.0
2016-May-23 11:33N 53°38' W 000°12'0 0.0
2016-May-23 10:33N 53°38' W 000°12'0 0.0
2016-May-23 09:33N 53°38' W 000°12'0 0.0
2016-May-23 08:33N 53°38' W 000°12'0 0.0
2016-May-23 07:34N 53°38' W 000°12'0 0.0
2016-May-23 06:33N 53°38' W 000°12'0 0.0
2016-May-23 05:33N 53°38' W 000°12'0 0.0
2016-May-23 04:33N 53°38' W 000°12'0 0.0
2016-May-23 03:33N 53°38' W 000°12'0 0.0
2016-May-23 02:34N 53°38' W 000°12'0 0.0
2016-May-23 01:33N 53°38' W 000°12'0 0.0
2016-May-23 00:33N 53°38' W 000°12'0 0.0
2016-May-22 23:33N 53°38' W 000°12'2 1.7
2016-May-22 22:33N 53°38' W 000°09'1111.0
2016-May-22 21:32N 53°34' E 000°08'9 8.3
2016-May-22 20:29N 53°38' E 000°21'42618.2
2016-May-21 21:07N 57°49' E 010°32'915.4
2016-May-21 20:33N 57°50' E 010°48'1615.8
2016-May-21 19:33N 57°43' E 011°15'1414.0
2016-May-21 18:33N 57°37' E 011°38'8 8.0
2016-May-21 17:34N 57°41' E 011°50'0 0.0
2016-May-21 16:34N 57°41' E 011°50'0 0.0
2016-May-21 15:34N 57°41' E 011°50'0 0.0
2016-May-21 14:34N 57°41' E 011°50'0 0.0
2016-May-21 13:34N 57°41' E 011°50'0 0.0
2016-May-21 12:34N 57°41' E 011°50'0 0.0
2016-May-21 11:34N 57°41' E 011°50'0 0.0
2016-May-21 10:34N 57°41' E 011°50'0 0.0
2016-May-21 09:34N 57°41' E 011°50'1 0.5
2016-May-21 08:34N 57°41' E 011°51'1312.5
2016-May-21 07:33N 57°38' E 011°28'1413.8
2016-May-21 06:33N 57°44' E 011°05'44618.6
2016-May-20 06:34N 53°33' E 000°12'1414.5
2016-May-20 05:34N 53°38' W 000°10'1 0.9
2016-May-20 04:34N 53°38' W 000°12'0 0.0
2016-May-20 03:33N 53°38' W 000°12'0 0.0
2016-May-20 02:33N 53°38' W 000°12'0 0.0
2016-May-20 01:33N 53°38' W 000°12'0 0.0
2016-May-20 00:34N 53°38' W 000°12'0 0.0
2016-May-19 23:33N 53°38' W 000°12'0 0.0
2016-May-19 22:33N 53°38' W 000°12'0 0.0
2016-May-19 21:33N 53°38' W 000°12'0 0.4
2016-May-19 20:33N 53°38' W 000°11'3 3.5
2016-May-19 19:33N 53°37' W 000°06'1110.7
2016-May-19 18:33N 53°33' E 000°11'44120.0
2016-May-18 20:34N 57°49' E 010°49'1615.9
2016-May-18 19:33N 57°43' E 011°17'1313.5
2016-May-18 18:34N 57°36' E 011°38'8 8.4
2016-May-18 17:33N 57°41' E 011°50'0 0.0
2016-May-18 16:33N 57°41' E 011°50'0 0.0
2016-May-18 15:33N 57°41' E 011°50'0 0.0
2016-May-18 14:33N 57°41' E 011°50'0 0.0
2016-May-18 13:33N 57°41' E 011°50'0 0.0
2016-May-18 12:33N 57°41' E 011°50'0 0.0
2016-May-18 11:33N 57°41' E 011°50'0 0.0
2016-May-18 10:33N 57°41' E 011°50'0 0.0
2016-May-18 09:33N 57°41' E 011°50'0 0.0
2016-May-18 08:33N 57°41' E 011°50'0 0.0
2016-May-18 07:33N 57°41' E 011°50'0 0.0
2016-May-18 06:33N 57°41' E 011°50'0 0.4
2016-May-18 05:33N 57°41' E 011°51'1110.9
2016-May-18 04:33N 57°37' E 011°32'44618.3
2016-May-17 04:12N 53°39' E 000°23'1015.9
2016-May-17 03:33N 53°33' E 000°10'1313.2
2016-May-17 02:33N 53°38' W 000°11'1 0.8
2016-May-17 01:34N 53°38' W 000°12'0 0.0
2016-May-17 00:33N 53°38' W 000°12'0 0.0
2016-May-16 23:34N 53°38' W 000°12'0 0.0
2016-May-16 22:33N 53°38' W 000°12'0 0.0
2016-May-16 21:34N 53°38' W 000°12'0 0.0
2016-May-16 20:33N 53°38' W 000°12'0 0.0
2016-May-16 19:34N 53°38' W 000°12'0 0.0
2016-May-16 18:34N 53°38' W 000°12'0 0.0
2016-May-16 17:33N 53°38' W 000°12'0 0.0
2016-May-16 16:33N 53°38' W 000°12'0 0.0
2016-May-16 15:33N 53°38' W 000°12'0 0.0
2016-May-16 14:33N 53°38' W 000°12'0 0.0
2016-May-16 13:33N 53°38' W 000°12'0 0.0
2016-May-16 12:34N 53°38' W 000°12'0 0.0
2016-May-16 11:34N 53°38' W 000°12'0 0.0
2016-May-16 10:33N 53°38' W 000°12'0 0.0
2016-May-16 09:33N 53°38' W 000°12'0 0.0
2016-May-16 08:33N 53°38' W 000°12'0 0.0
2016-May-16 07:33N 53°38' W 000°12'0 0.0
2016-May-16 06:34N 53°38' W 000°12'0 0.0
2016-May-16 05:33N 53°38' W 000°12'0 0.0
2016-May-16 04:33N 53°38' W 000°12'0 0.0
2016-May-16 03:33N 53°38' W 000°12'0 0.0
2016-May-16 02:34N 53°38' W 000°12'0 0.0
2016-May-16 01:33N 53°38' W 000°12'0 0.0
2016-May-16 00:33N 53°38' W 000°12'0 0.0
2016-May-15 23:33N 53°38' W 000°12'2 2.0
2016-May-15 22:33N 53°38' W 000°09'1110.9
2016-May-15 21:34N 53°33' E 000°08'  

Dump ship's entire track history